Time;durP1;ratioP1;P1;durP2;ratioP2;P2;SDS_P1;SDS_P2;PMS_P1;PMS_P2;Temp;Humidity;BMP_temperature;BMP_pressure;BME280_temperature;BME280_humidity;BME280_pressure;Samples;Min_cycle;Max_cycle;Signal;HPM_P1;HPM_P2
2022/04/06 00:00:07;;;;;;;0.90;0.90;;;9.10;99.90;;;;;;5132350;27;20207;-60
2022/04/06 00:02:51;;;;;;;0.70;0.70;;;9.10;99.90;;;;;;5128216;27;20182;-59
2022/04/06 00:05:36;;;;;;;0.93;0.93;;;9.10;99.90;;;;;;5136921;27;20186;-56
2022/04/06 00:08:20;;;;;;;0.83;0.83;;;9.10;99.90;;;;;;5137380;27;20219;-59
2022/04/06 00:11:04;;;;;;;0.80;0.80;;;9.00;99.90;;;;;;5138973;27;20274;-57
2022/04/06 00:13:49;;;;;;;0.90;0.90;;;9.10;99.90;;;;;;5141549;27;20372;-57
2022/04/06 00:16:34;;;;;;;1.27;0.73;;;9.10;99.90;;;;;;5145103;27;20232;-61
2022/04/06 00:19:19;;;;;;;2.73;1.13;;;9.00;99.90;;;;;;5148400;27;20292;-55
2022/04/06 00:22:03;;;;;;;0.80;0.80;;;9.00;99.90;;;;;;5149977;27;20197;-59
2022/04/06 00:24:48;;;;;;;0.93;0.93;;;9.10;99.90;;;;;;5145667;27;20202;-61
2022/04/06 00:27:33;;;;;;;1.03;1.03;;;9.10;99.90;;;;;;5148450;27;20203;-58
2022/04/06 00:30:17;;;;;;;0.97;0.97;;;9.10;99.90;;;;;;5150436;27;20182;-59
2022/04/06 00:33:01;;;;;;;0.80;0.80;;;9.10;99.90;;;;;;5148924;27;20259;-60
2022/04/06 00:35:46;;;;;;;0.70;0.70;;;9.10;99.90;;;;;;5107992;28;20241;-55
2022/04/06 00:38:30;;;;;;;1.00;1.00;;;9.10;99.90;;;;;;5126233;27;20327;-52
2022/04/06 00:41:15;;;;;;;0.73;0.73;;;9.10;99.90;;;;;;5135780;27;20341;-54
2022/04/06 00:44:13;;;;;;;1.43;1.33;;;9.00;99.90;;;;;;5137713;27;20192;-55
2022/04/06 00:46:58;;;;;;;1.30;1.20;;;9.10;99.90;;;;;;5138280;27;20191;-54
2022/04/06 00:49:42;;;;;;;0.87;0.87;;;9.00;99.90;;;;;;5137196;27;20652;-56
2022/04/06 00:52:27;;;;;;;0.83;0.83;;;9.00;99.90;;;;;;5139389;27;20229;-53
2022/04/06 00:55:13;;;;;;;0.83;0.83;;;9.10;99.90;;;;;;5133302;27;20208;-60
2022/04/06 00:57:58;;;;;;;0.93;0.93;;;9.10;99.90;;;;;;5130363;27;20194;-51
2022/04/06 01:00:42;;;;;;;1.37;1.03;;;9.10;99.90;;;;;;5133196;27;20251;-60
2022/04/06 01:03:26;;;;;;;1.00;1.00;;;9.00;99.90;;;;;;5138149;27;20183;-57
2022/04/06 01:06:11;;;;;;;1.00;0.80;;;9.10;99.90;;;;;;5139410;27;20186;-54
2022/04/06 01:08:56;;;;;;;1.10;0.93;;;9.00;99.90;;;;;;5136284;27;20219;-57
2022/04/06 01:11:43;;;;;;;1.17;1.17;;;9.10;99.90;;;;;;5131299;27;20220;-56
2022/04/06 01:14:28;;;;;;;1.20;1.20;;;9.00;99.90;;;;;;5130489;27;20195;-56
2022/04/06 01:20:53;;;;;;;1.20;1.20;;;9.00;99.90;;;;;;5135396;27;20195;-60
2022/04/06 01:23:39;;;;;;;1.17;1.17;;;9.10;99.90;;;;;;5132841;27;20178;-57
2022/04/06 01:26:24;;;;;;;2.40;1.10;;;9.10;99.90;;;;;;5137127;27;20182;-51
2022/04/06 01:29:08;;;;;;;0.97;0.97;;;9.10;99.90;;;;;;5139555;27;20211;-58
2022/04/06 01:31:53;;;;;;;1.77;1.67;;;9.10;99.90;;;;;;5146345;27;20261;-57
2022/04/06 01:34:38;;;;;;;3.03;1.77;;;9.10;99.90;;;;;;5146840;27;20268;-56
2022/04/06 01:37:23;;;;;;;1.40;1.30;;;9.10;99.90;;;;;;5145042;27;20187;-56
2022/04/06 01:40:08;;;;;;;2.07;1.90;;;9.10;99.90;;;;;;5146670;27;20210;-60
2022/04/06 01:42:52;;;;;;;1.60;1.50;;;9.10;99.90;;;;;;5146781;27;20283;-57
2022/04/06 01:45:36;;;;;;;1.77;1.67;;;9.10;99.90;;;;;;5145121;27;20195;-50
2022/04/06 01:48:21;;;;;;;1.17;1.13;;;9.10;99.90;;;;;;5147455;27;20198;-55
2022/04/06 01:54:08;;;;;;;1.53;1.43;;;9.10;99.90;;;;;;5146514;27;20345;-51
2022/04/06 01:56:53;;;;;;;1.20;1.20;;;9.10;99.90;;;;;;5146640;27;20203;-55
2022/04/06 01:59:37;;;;;;;1.67;1.43;;;9.10;99.90;;;;;;5145245;27;20275;-55
2022/04/06 02:02:23;;;;;;;1.90;1.80;;;9.10;99.90;;;;;;5145162;27;20244;-51
2022/04/06 02:05:08;;;;;;;2.87;1.67;;;9.10;99.90;;;;;;5146205;27;20203;-55
2022/04/06 02:07:53;;;;;;;1.40;1.30;;;9.10;99.90;;;;;;5144088;27;20271;-50
2022/04/06 02:10:42;;;;;;;1.60;1.50;;;9.10;99.90;;;;;;5145867;27;20205;-56
2022/04/06 02:13:27;;;;;;;2.03;1.83;;;9.10;99.90;;;;;;5147184;27;20288;-46
2022/04/06 02:16:11;;;;;;;3.03;1.43;;;9.10;99.90;;;;;;5144028;27;20194;-57
2022/04/06 02:18:55;;;;;;;1.87;1.77;;;9.10;99.90;;;;;;5146336;27;20221;-55
2022/04/06 02:21:39;;;;;;;2.10;1.90;;;9.10;99.90;;;;;;5145990;27;20283;-59
2022/04/06 02:24:24;;;;;;;1.67;1.57;;;9.10;99.90;;;;;;5144155;27;20187;-54
2022/04/06 02:27:08;;;;;;;2.00;1.53;;;9.10;99.90;;;;;;5144922;27;20203;-54
2022/04/06 02:29:53;;;;;;;2.07;1.57;;;9.10;99.90;;;;;;5144562;27;20213;-57
2022/04/06 02:32:37;;;;;;;1.67;1.53;;;9.10;99.90;;;;;;5144111;27;20195;-59
2022/04/06 02:35:21;;;;;;;1.53;1.40;;;9.10;99.90;;;;;;5145865;27;20249;-60
2022/04/06 02:38:06;;;;;;;1.30;1.20;;;9.10;99.90;;;;;;5143674;27;20282;-58
2022/04/06 02:40:51;;;;;;;2.73;1.43;;;9.10;99.90;;;;;;5144210;27;20322;-61
2022/04/06 02:43:36;;;;;;;2.40;1.77;;;9.10;99.90;;;;;;5145983;27;20264;-53
2022/04/06 02:46:20;;;;;;;3.40;1.90;;;9.10;99.90;;;;;;5143887;27;20194;-53
2022/04/06 02:49:05;;;;;;;4.10;2.00;;;9.10;99.90;;;;;;5146072;27;20195;-58
2022/04/06 02:51:50;;;;;;;2.13;1.93;;;9.10;99.90;;;;;;5145142;27;20194;-59
2022/04/06 02:54:35;;;;;;;3.47;2.63;;;9.00;99.90;;;;;;5143480;27;20218;-52
2022/04/06 02:57:19;;;;;;;2.20;2.00;;;9.00;99.90;;;;;;5145201;27;20186;-54
2022/04/06 03:00:04;;;;;;;4.00;2.13;;;9.00;99.90;;;;;;5144054;27;20257;-57
2022/04/06 03:02:50;;;;;;;3.00;2.30;;;9.10;99.90;;;;;;5144298;27;20226;-54
2022/04/06 03:05:34;;;;;;;2.73;2.10;;;9.00;99.90;;;;;;5145160;27;20187;-52
2022/04/06 03:08:19;;;;;;;2.20;2.00;;;9.00;99.90;;;;;;5143413;27;20276;-58
2022/04/06 03:11:03;;;;;;;2.33;2.13;;;9.10;99.90;;;;;;5144762;27;20295;-54
2022/04/06 03:13:48;;;;;;;2.57;1.97;;;9.10;99.90;;;;;;5145628;27;20210;-54
2022/04/06 03:16:32;;;;;;;2.37;2.20;;;9.00;99.90;;;;;;5143178;27;20187;-56
2022/04/06 03:19:17;;;;;;;4.47;2.40;;;9.00;99.90;;;;;;5144665;27;20218;-54
2022/04/06 03:22:02;;;;;;;2.13;1.90;;;9.00;99.90;;;;;;5144690;27;20194;-56
2022/04/06 03:24:47;;;;;;;1.93;1.83;;;9.00;99.90;;;;;;5142905;27;20220;-54
2022/04/06 03:27:31;;;;;;;2.40;2.03;;;9.00;99.90;;;;;;5144688;27;20247;-59
2022/04/06 03:30:15;;;;;;;1.93;1.83;;;9.00;99.90;;;;;;5143532;27;20198;-61
2022/04/06 03:32:59;;;;;;;1.67;1.57;;;9.00;99.90;;;;;;5143112;27;20233;-56
2022/04/06 03:35:43;;;;;;;2.30;2.10;;;9.00;99.90;;;;;;5144670;27;20248;-58
2022/04/06 03:38:28;;;;;;;1.90;1.80;;;9.10;99.90;;;;;;5142299;27;20230;-50
2022/04/06 03:41:13;;;;;;;1.60;1.50;;;9.10;99.90;;;;;;5144263;27;20529;-60
2022/04/06 03:43:57;;;;;;;2.87;2.50;;;9.10;99.90;;;;;;5144827;27;20260;-60
2022/04/06 03:46:41;;;;;;;6.83;4.10;;;9.10;99.90;;;;;;5142999;27;20232;-56
2022/04/06 03:49:25;;;;;;;2.40;2.20;;;9.10;99.90;;;;;;5145018;27;20268;-60
2022/04/06 03:52:10;;;;;;;3.83;1.90;;;9.20;99.90;;;;;;5143969;27;20239;-57
2022/04/06 03:54:55;;;;;;;1.70;1.60;;;9.20;99.90;;;;;;5142316;27;20222;-59
2022/04/06 03:57:39;;;;;;;4.40;1.83;;;9.20;99.90;;;;;;5144126;27;20320;-57
2022/04/06 04:00:24;;;;;;;3.47;1.37;;;9.30;99.90;;;;;;5143132;27;20241;-54
2022/04/06 04:03:09;;;;;;;1.90;1.70;;;9.30;99.90;;;;;;5142919;27;20268;-58
2022/04/06 04:05:53;;;;;;;1.53;1.43;;;9.40;99.90;;;;;;5144542;27;20228;-51
2022/04/06 04:08:37;;;;;;;2.40;2.20;;;9.40;99.90;;;;;;5142321;27;20236;-55
2022/04/06 04:11:21;;;;;;;1.70;1.60;;;9.30;99.90;;;;;;5144230;27;20302;-56
2022/04/06 04:14:05;;;;;;;7.83;2.40;;;9.30;99.90;;;;;;5144591;27;20190;-53
2022/04/06 04:16:50;;;;;;;2.17;1.97;;;9.40;99.90;;;;;;5141896;27;20205;-52
2022/04/06 04:19:34;;;;;;;1.73;1.63;;;9.50;99.90;;;;;;5144804;27;20244;-55
2022/04/06 04:22:19;;;;;;;1.57;1.47;;;9.40;99.90;;;;;;5144061;27;20223;-51
2022/04/06 04:25:05;;;;;;;2.60;1.97;;;9.50;99.90;;;;;;5142857;27;20195;-48
2022/04/06 04:27:50;;;;;;;2.13;2.03;;;9.40;99.90;;;;;;5144164;27;20207;-54
2022/04/06 04:30:34;;;;;;;49.97;21.53;;;9.40;99.90;;;;;;5142775;27;20250;-59
2022/04/06 04:33:18;;;;;;;3.07;2.60;;;9.40;99.90;;;;;;5143004;27;20195;-50
2022/04/06 04:36:02;;;;;;;1.27;0.90;;;9.40;99.90;;;;;;5144167;27;20239;-52
2022/04/06 04:38:47;;;;;;;1.50;1.40;;;9.40;99.90;;;;;;5141689;27;20222;-52
2022/04/06 04:41:32;;;;;;;1.60;1.00;;;9.30;99.90;;;;;;5143827;27;20222;-56
2022/04/06 04:44:16;;;;;;;2.73;1.80;;;9.20;99.90;;;;;;5144072;27;20251;-53
2022/04/06 04:47:01;;;;;;;1.27;1.23;;;9.30;99.90;;;;;;5141575;27;20206;-58
2022/04/06 04:49:45;;;;;;;1.37;1.07;;;9.20;99.90;;;;;;5146134;27;20190;-50
2022/04/06 04:52:29;;;;;;;1.77;1.23;;;9.30;99.90;;;;;;5147035;27;20195;-50
2022/04/06 04:55:14;;;;;;;1.50;1.40;;;9.20;99.90;;;;;;5146516;27;20248;-49
2022/04/06 04:57:59;;;;;;;1.60;1.50;;;9.20;99.90;;;;;;5148678;27;20210;-50
2022/04/06 05:00:43;;;;;;;1.60;1.50;;;9.20;99.90;;;;;;5146402;27;20201;-58
2022/04/06 05:03:28;;;;;;;1.33;1.23;;;9.20;99.90;;;;;;5146753;27;20199;-58
2022/04/06 05:06:13;;;;;;;1.70;1.60;;;9.20;99.90;;;;;;5147476;27;20266;-51
2022/04/06 05:08:58;;;;;;;1.87;1.37;;;9.20;99.90;;;;;;5145783;27;20241;-53
2022/04/06 05:11:42;;;;;;;1.13;1.13;;;9.20;99.90;;;;;;5147464;27;20201;-53
2022/04/06 05:14:27;;;;;;;1.37;1.37;;;9.20;99.90;;;;;;5147346;27;20244;-57
2022/04/06 05:17:11;;;;;;;1.80;1.10;;;9.20;99.90;;;;;;5145262;27;20218;-48
2022/04/06 05:19:56;;;;;;;1.80;1.20;;;9.30;99.90;;;;;;5147516;27;20222;-47
2022/04/06 05:22:40;;;;;;;1.70;1.60;;;9.30;99.90;;;;;;5146463;27;20235;-51
2022/04/06 05:25:25;;;;;;;1.10;1.10;;;9.40;99.90;;;;;;5145248;27;20194;-56
2022/04/06 05:28:09;;;;;;;1.20;1.20;;;9.40;99.90;;;;;;5145144;27;20195;-49
2022/04/06 05:30:53;;;;;;;1.73;1.63;;;9.40;99.90;;;;;;5132995;27;20195;-51
2022/04/06 05:33:38;;;;;;;1.77;1.63;;;9.50;99.90;;;;;;5134555;27;20218;-57
2022/04/06 05:36:24;;;;;;;1.90;1.27;;;9.50;99.90;;;;;;5132742;27;20199;-55
2022/04/06 05:39:09;;;;;;;2.20;1.70;;;9.40;99.90;;;;;;5130778;27;20236;-58
2022/04/06 05:41:53;;;;;;;1.87;1.77;;;9.50;99.90;;;;;;5136760;27;20235;-55
2022/04/06 05:44:37;;;;;;;1.73;1.63;;;9.50;99.90;;;;;;5136894;27;20200;-53
2022/04/06 05:47:21;;;;;;;1.40;1.30;;;9.50;99.90;;;;;;5131595;27;20245;-46
2022/04/06 05:50:07;;;;;;;2.43;1.40;;;9.60;99.90;;;;;;5129010;27;20198;-57
2022/04/06 05:52:51;;;;;;;1.30;1.20;;;9.60;99.90;;;;;;5125753;27;20218;-56
2022/04/06 05:55:37;;;;;;;0.97;0.97;;;9.80;99.90;;;;;;5124265;27;20187;-56
2022/04/06 05:58:21;;;;;;;1.77;1.53;;;9.90;99.90;;;;;;5123481;27;20223;-54
2022/04/06 06:01:05;;;;;;;1.17;1.17;;;9.90;99.90;;;;;;5121621;27;20292;-57
2022/04/06 06:03:49;;;;;;;1.70;1.60;;;10.00;99.90;;;;;;5123463;27;20219;-59
2022/04/06 06:06:35;;;;;;;1.10;1.10;;;9.90;99.90;;;;;;5125148;27;20204;-55
2022/04/06 06:09:20;;;;;;;1.50;1.40;;;9.80;99.90;;;;;;5120625;27;20200;-59
2022/04/06 06:12:05;;;;;;;1.17;1.07;;;9.90;99.90;;;;;;5123473;27;20203;-53
2022/04/06 06:14:49;;;;;;;1.13;1.03;;;9.90;99.90;;;;;;5125051;27;20217;-59
2022/04/06 06:17:40;;;;;;;1.40;1.30;;;10.00;99.90;;;;;;5116776;27;20194;-44
2022/04/06 06:20:27;;;;;;;2.43;1.20;;;9.90;99.90;;;;;;5124710;27;20276;-54
2022/04/06 06:23:11;;;;;;;1.37;1.27;;;9.70;99.90;;;;;;5122690;27;20187;-50
2022/04/06 06:25:56;;;;;;;0.93;0.93;;;9.60;99.90;;;;;;5154429;27;20187;-55
2022/04/06 06:28:41;;;;;;;2.63;1.13;;;9.60;99.90;;;;;;5122268;27;20253;-52
2022/04/06 06:31:28;;;;;;;1.20;1.07;;;9.70;99.90;;;;;;5133154;27;20222;-54
2022/04/06 06:34:13;;;;;;;1.10;1.00;;;9.70;99.90;;;;;;5122676;27;20248;-46
2022/04/06 06:36:57;;;;;;;1.30;1.27;;;9.70;99.90;;;;;;5120089;27;20203;-48
2022/04/06 06:39:41;;;;;;;1.10;1.10;;;9.80;99.90;;;;;;5120717;27;20219;-46
2022/04/06 06:42:25;;;;;;;1.20;1.20;;;9.70;99.90;;;;;;5123232;27;20232;-48
2022/04/06 06:45:11;;;;;;;1.73;1.63;;;9.70;99.90;;;;;;5105977;27;20240;-50
2022/04/06 06:47:55;;;;;;;1.17;1.17;;;9.70;99.90;;;;;;5115068;27;20273;-60
2022/04/06 06:50:39;;;;;;;1.30;1.20;;;9.80;99.90;;;;;;5123072;27;20266;-53
2022/04/06 06:53:24;;;;;;;1.90;1.80;;;9.80;99.90;;;;;;5121914;27;20200;-54
2022/04/06 06:56:08;;;;;;;1.40;1.20;;;9.90;99.90;;;;;;5127072;27;20584;-55
2022/04/06 06:58:53;;;;;;;1.47;1.37;;;10.00;99.90;;;;;;5129797;27;20276;-50
2022/04/06 07:01:37;;;;;;;0.97;0.97;;;10.10;99.90;;;;;;5128479;27;20280;-54
2022/04/06 07:04:24;;;;;;;1.77;1.43;;;10.00;99.90;;;;;;5129938;27;20203;-54
2022/04/06 07:07:09;;;;;;;1.23;1.13;;;10.00;99.90;;;;;;5144325;27;20187;-54
2022/04/06 07:09:53;;;;;;;1.30;1.10;;;10.00;99.90;;;;;;5133617;27;20199;-50
2022/04/06 07:12:37;;;;;;;1.90;1.80;;;10.10;99.90;;;;;;5134896;27;20190;-43
2022/04/06 07:15:23;;;;;;;1.80;1.33;;;10.20;99.90;;;;;;5132880;27;20269;-54
2022/04/06 07:18:11;;;;;;;1.37;1.33;;;10.20;99.90;;;;;;5128658;27;20186;-56
2022/04/06 07:20:56;;;;;;;1.17;1.00;;;10.30;99.90;;;;;;5134708;27;20195;-42
2022/04/06 07:23:41;;;;;;;1.17;1.17;;;10.60;99.90;;;;;;5129672;27;20210;-48
2022/04/06 07:26:25;;;;;;;1.73;1.53;;;10.40;99.90;;;;;;5132333;27;20222;-41
2022/04/06 07:29:11;;;;;;;1.73;1.60;;;10.60;99.90;;;;;;5133436;27;20245;-43
2022/04/06 07:31:55;;;;;;;1.10;1.10;;;10.60;99.90;;;;;;5133772;27;20214;-57
2022/04/06 07:34:40;;;;;;;1.20;1.10;;;10.70;99.90;;;;;;5129263;27;20228;-62
2022/04/06 07:37:24;;;;;;;1.33;1.17;;;10.70;99.90;;;;;;5135488;27;20214;-58
2022/04/06 07:40:12;;;;;;;1.10;1.00;;;10.80;99.90;;;;;;5130069;27;20273;-56
2022/04/06 07:42:56;;;;;;;1.20;1.20;;;10.90;99.90;;;;;;5128182;27;20239;-50
2022/04/06 07:45:41;;;;;;;1.23;1.17;;;11.00;99.90;;;;;;5117999;27;20204;-58
2022/04/06 07:48:27;;;;;;;0.83;0.83;;;11.00;99.90;;;;;;5115247;27;20226;-57
2022/04/06 07:51:12;;;;;;;1.40;1.30;;;10.90;99.90;;;;;;5117476;27;20245;-64
2022/04/06 07:53:56;;;;;;;1.40;1.30;;;10.80;99.90;;;;;;5114372;27;20477;-55
2022/04/06 07:56:42;;;;;;;1.23;1.13;;;10.90;99.90;;;;;;5101159;28;20289;-63
2022/04/06 07:59:26;;;;;;;0.93;0.93;;;11.00;99.90;;;;;;5102579;28;20230;-59
2022/04/06 08:02:11;;;;;;;0.77;0.77;;;11.00;99.90;;;;;;5128023;27;20190;-59
2022/04/06 08:04:55;;;;;;;1.27;1.20;;;11.20;99.90;;;;;;5109785;27;20195;-62
2022/04/06 08:07:41;;;;;;;1.07;1.07;;;11.30;99.90;;;;;;5103222;28;20200;-61
2022/04/06 08:10:28;;;;;;;1.13;1.13;;;11.10;99.90;;;;;;5100832;28;20192;-45
2022/04/06 08:13:12;;;;;;;1.07;1.00;;;11.10;99.90;;;;;;5101418;28;20219;-59
2022/04/06 08:15:58;;;;;;;1.30;1.20;;;11.00;99.90;;;;;;5115660;27;20195;-58
2022/04/06 08:18:42;;;;;;;1.10;1.10;;;11.10;99.90;;;;;;5115476;27;20300;-60
2022/04/06 08:21:27;;;;;;;0.70;0.70;;;11.10;99.90;;;;;;5121816;27;20266;-62
2022/04/06 08:24:12;;;;;;;1.70;1.40;;;11.10;99.90;;;;;;5133467;27;20204;-59
2022/04/06 08:26:57;;;;;;;0.70;0.70;;;11.20;99.90;;;;;;5143221;27;20268;-60
2022/04/06 08:29:41;;;;;;;1.10;1.00;;;11.30;99.90;;;;;;5125510;27;20252;-51
2022/04/06 08:32:26;;;;;;;1.00;1.00;;;11.20;99.90;;;;;;5120575;27;20260;-64
2022/04/06 08:35:12;;;;;;;1.10;1.10;;;11.50;99.90;;;;;;5115850;27;20198;-59
2022/04/06 08:37:56;;;;;;;2.37;1.23;;;11.80;99.90;;;;;;5127273;27;20192;-59
2022/04/06 08:40:42;;;;;;;1.37;1.27;;;11.60;99.90;;;;;;5136293;27;20256;-54
2022/04/06 08:43:27;;;;;;;0.80;0.80;;;11.50;99.90;;;;;;5127427;27;20195;-52
2022/04/06 08:46:12;;;;;;;1.13;1.03;;;11.50;99.90;;;;;;5141569;27;20238;-55
2022/04/06 08:48:58;;;;;;;1.50;1.00;;;11.60;99.90;;;;;;5123405;27;20320;-61
2022/04/06 08:51:45;;;;;;;0.80;0.80;;;11.70;99.90;;;;;;5129008;27;20190;-58
2022/04/06 08:54:30;;;;;;;1.30;1.00;;;11.40;99.90;;;;;;5122237;27;20198;-59
2022/04/06 08:57:17;;;;;;;1.00;1.00;;;11.50;99.90;;;;;;5131999;27;20192;-49
2022/04/06 09:00:02;;;;;;;0.70;0.70;;;11.50;99.90;;;;;;5125521;27;20235;-62
2022/04/06 09:02:47;;;;;;;0.93;0.93;;;11.60;99.90;;;;;;5125018;27;20231;-64
2022/04/06 09:05:32;;;;;;;1.20;1.07;;;11.70;99.90;;;;;;5125879;27;20297;-59
2022/04/06 09:08:16;;;;;;;1.07;1.07;;;11.80;99.90;;;;;;5156274;27;20191;-55
2022/04/06 09:11:13;;;;;;;1.47;1.47;;;11.80;99.90;;;;;;5154119;27;20219;-51
2022/04/06 09:14:02;;;;;;;1.47;0.93;;;11.70;99.90;;;;;;5117015;27;20185;-50
2022/04/06 09:17:00;;;;;;;1.00;1.00;;;11.60;99.90;;;;;;5106995;28;20189;-46
2022/04/06 09:19:49;;;;;;;1.40;1.40;;;11.40;99.90;;;;;;5104834;28;20223;-42
2022/04/06 09:22:37;;;;;;;0.90;0.90;;;11.50;99.90;;;;;;5105563;28;20246;-53
2022/04/06 09:25:22;;;;;;;1.00;1.00;;;11.60;99.90;;;;;;5126454;27;20203;-65
2022/04/06 09:28:11;;;;;;;1.13;1.10;;;11.60;99.90;;;;;;5154910;27;20200;-59
2022/04/06 09:30:55;;;;;;;0.80;0.67;;;11.80;99.90;;;;;;5126492;27;20208;-61
2022/04/06 09:33:41;;;;;;;0.70;0.70;;;11.90;99.90;;;;;;5106391;28;20192;-60
2022/04/06 09:36:30;;;;;;;1.10;1.00;;;12.00;99.90;;;;;;5103313;28;20383;-45
2022/04/06 09:39:14;;;;;;;0.80;0.80;;;12.10;99.90;;;;;;5106414;28;20220;-51
2022/04/06 09:41:59;;;;;;;0.80;0.80;;;12.20;99.90;;;;;;5106181;28;20220;-58
2022/04/06 09:47:58;;;;;;;1.03;1.03;;;12.20;99.90;;;;;;5107974;28;20227;-57
2022/04/06 09:50:56;;;;;;;0.90;0.90;;;12.20;99.90;;;;;;5106646;28;20234;-51
2022/04/06 09:53:40;;;;;;;1.83;0.97;;;12.30;99.90;;;;;;5103612;28;20224;-49
2022/04/06 09:56:25;;;;;;;1.47;0.70;;;12.40;99.90;;;;;;5105955;28;20232;-42
2022/04/06 09:59:11;;;;;;;0.67;0.67;;;12.30;99.90;;;;;;5118055;27;20235;-56
2022/04/06 10:01:57;;;;;;;0.93;0.93;;;12.40;99.90;;;;;;5103793;28;20204;-64
2022/04/06 10:04:43;;;;;;;1.03;1.03;;;12.40;99.90;;;;;;5106044;28;20200;-54
2022/04/06 10:07:28;;;;;;;1.10;1.10;;;12.30;99.90;;;;;;5104593;28;20240;-67
2022/04/06 10:10:13;;;;;;;0.47;0.47;;;12.20;99.90;;;;;;5104741;28;20263;-60
2022/04/06 10:12:57;;;;;;;0.80;0.80;;;12.30;99.90;;;;;;5105827;28;20196;-54
2022/04/06 10:15:42;;;;;;;0.67;0.60;;;12.30;99.90;;;;;;5103726;28;20203;-56
2022/04/06 10:18:30;;;;;;;0.80;0.80;;;12.40;99.90;;;;;;5104957;28;20235;-63
2022/04/06 10:21:44;;;;;;;0.80;0.80;;;12.70;99.90;;;;;;5106825;28;20195;-41
2022/04/06 10:24:59;;;;;;;0.80;0.80;;;13.00;99.90;;;;;;5103436;28;20245;-61
2022/04/06 10:27:51;;;;;;;0.93;0.83;;;13.30;99.90;;;;;;5103812;28;20188;-60
2022/04/06 10:30:35;;;;;;;0.47;0.47;;;13.10;99.90;;;;;;5119566;27;20265;-55
2022/04/06 10:33:21;;;;;;;0.60;0.60;;;12.80;99.90;;;;;;5103743;28;20192;-53
2022/04/06 10:36:19;;;;;;;0.63;0.63;;;12.80;99.90;;;;;;5103982;28;20253;-64
2022/04/06 10:39:06;;;;;;;0.53;0.53;;;12.60;99.90;;;;;;5105303;28;20227;-62
2022/04/06 10:42:13;;;;;;;0.50;0.50;;;12.90;99.90;;;;;;5103011;28;20227;-57
2022/04/06 10:44:59;;;;;;;0.60;0.60;;;12.90;99.90;;;;;;5104000;28;20204;-49
2022/04/06 10:48:15;;;;;;;0.50;0.50;;;12.70;99.90;;;;;;5104970;28;20276;-44
2022/04/06 10:51:29;;;;;;;0.50;0.50;;;12.80;99.90;;;;;;5104832;28;20192;-61
2022/04/06 10:54:13;;;;;;;0.60;0.60;;;12.70;99.90;;;;;;5102497;28;20187;-48
2022/04/06 10:57:01;;;;;;;0.50;0.50;;;13.00;99.90;;;;;;5104355;28;20237;-49
2022/04/06 11:00:15;;;;;;;0.50;0.50;;;13.10;99.90;;;;;;5104301;28;20224;-49
2022/04/06 11:03:18;;;;;;;0.47;0.47;;;13.00;99.90;;;;;;5102878;28;20204;-51
2022/04/06 11:06:02;;;;;;;0.37;0.37;;;12.80;99.90;;;;;;5103610;28;20200;-44
2022/04/06 11:12:09;;;;;;;0.37;0.37;;;13.10;99.90;;;;;;5103588;28;20188;-46
2022/04/06 11:14:59;;;;;;;0.20;0.20;;;13.40;99.90;;;;;;5117928;27;20192;-47
2022/04/06 11:17:45;;;;;;;0.40;0.40;;;13.30;99.90;;;;;;5104788;28;20192;-42
2022/04/06 11:20:31;;;;;;;0.20;0.20;;;13.30;99.90;;;;;;5103240;28;20269;-49
2022/04/06 11:23:16;;;;;;;0.40;0.40;;;13.30;99.90;;;;;;5104409;28;20290;-46
2022/04/06 11:26:01;;;;;;;0.20;0.20;;;13.30;99.90;;;;;;5105695;28;20238;-43
2022/04/06 11:29:00;;;;;;;0.33;0.33;;;13.60;99.90;;;;;;5102084;28;20245;-41
2022/04/06 11:31:59;;;;;;;0.50;0.50;;;13.40;99.90;;;;;;5104078;28;20300;-45
2022/04/06 11:34:44;;;;;;;2.07;0.30;;;13.60;99.90;;;;;;5105137;28;20242;-49
2022/04/06 11:37:28;;;;;;;0.37;0.37;;;13.30;99.90;;;;;;5101931;28;20233;-55
2022/04/06 11:40:18;;;;;;;0.37;0.33;;;13.70;99.90;;;;;;5101163;27;20220;-62
2022/04/06 11:43:05;;;;;;;0.30;0.30;;;13.80;99.90;;;;;;5142060;27;20199;-59
2022/04/06 11:45:57;;;;;;;0.27;0.27;;;13.90;99.90;;;;;;5122248;27;20236;-61
2022/04/06 11:48:43;;;;;;;0.40;0.40;;;14.20;99.90;;;;;;5105937;27;20214;-54
2022/04/06 11:51:28;;;;;;;0.30;0.30;;;14.60;99.90;;;;;;5124198;27;20227;-50
2022/04/06 11:54:12;;;;;;;0.27;0.27;;;14.80;99.90;;;;;;5152496;27;20188;-48
2022/04/06 11:56:57;;;;;;;0.20;0.20;;;14.80;99.90;;;;;;5153934;27;20204;-55
2022/04/06 11:59:55;;;;;;;0.63;0.40;;;14.50;99.90;;;;;;5151816;27;20340;-50
2022/04/06 12:02:56;;;;;;;0.20;0.20;;;14.10;99.90;;;;;;5122928;28;20257;-56
2022/04/06 12:05:47;;;;;;;1.80;0.43;;;14.70;99.90;;;;;;5124076;28;20227;-44
2022/04/06 12:08:31;;;;;;;0.30;0.30;;;15.40;99.90;;;;;;5152472;27;20202;-55
2022/04/06 12:11:20;;;;;;;0.37;0.37;;;15.80;99.90;;;;;;5152212;27;20255;-64
2022/04/06 12:14:05;;;;;;;0.20;0.20;;;15.70;99.90;;;;;;5124098;28;20209;-40
2022/04/06 12:16:50;;;;;;;0.30;0.30;;;16.70;99.90;;;;;;5122382;28;20191;-64
2022/04/06 12:19:35;;;;;;;0.30;0.30;;;17.80;99.90;;;;;;5152637;27;20284;-65
2022/04/06 12:22:25;;;;;;;0.20;0.20;;;18.80;99.00;;;;;;5154138;27;20191;-50
2022/04/06 12:25:29;;;;;;;0.50;0.40;;;17.30;99.10;;;;;;5122116;28;20208;-63
2022/04/06 12:28:21;;;;;;;0.30;0.30;;;16.90;99.90;;;;;;5122910;28;20259;-57
2022/04/06 12:31:07;;;;;;;0.30;0.30;;;16.40;99.90;;;;;;5124665;28;20192;-55
2022/04/06 12:33:53;;;;;;;0.40;0.40;;;16.40;99.90;;;;;;5121916;28;20244;-42
2022/04/06 12:36:38;;;;;;;0.30;0.30;;;17.10;99.90;;;;;;5152979;27;20214;-47
2022/04/06 12:39:22;;;;;;;0.40;0.40;;;17.00;99.70;;;;;;5153914;27;20223;-60
2022/04/06 12:42:07;;;;;;;0.50;0.50;;;16.70;99.70;;;;;;5151031;27;20234;-48
2022/04/06 12:44:56;;;;;;;0.50;0.50;;;16.30;99.90;;;;;;5153212;27;20203;-64
2022/04/06 12:47:41;;;;;;;0.73;0.30;;;16.30;99.90;;;;;;5123730;28;20195;-63
2022/04/06 12:50:25;;;;;;;0.20;0.20;;;16.30;99.90;;;;;;5122134;28;20203;-52
2022/04/06 12:53:12;;;;;;;1.13;0.30;;;17.10;99.70;;;;;;5151515;27;20195;-65
2022/04/06 12:56:10;;;;;;;0.37;0.23;;;18.00;99.10;;;;;;5133652;27;20219;-58
2022/04/06 12:59:09;;;;;;;0.30;0.30;;;17.80;98.20;;;;;;5133623;27;20227;-62
2022/04/06 13:01:53;;;;;;;0.50;0.40;;;18.10;98.80;;;;;;5131384;27;20192;-53
2022/04/06 13:04:38;;;;;;;0.40;0.40;;;19.70;97.30;;;;;;5152615;27;20191;-64
2022/04/06 13:07:23;;;;;;;0.40;0.40;;;20.00;96.20;;;;;;5150282;27;20276;-47
2022/04/06 13:10:12;;;;;;;0.30;0.22;;;19.30;96.00;;;;;;5123435;27;20278;-60
2022/04/06 13:12:57;;;;;;;0.43;0.43;;;19.20;95.80;;;;;;5114882;27;20195;-59
2022/04/06 13:15:42;;;;;;;0.90;0.37;;;17.80;97.00;;;;;;5123944;27;20248;-46
2022/04/06 13:18:26;;;;;;;0.40;0.40;;;17.90;97.30;;;;;;5126449;27;20208;-46
2022/04/06 13:21:11;;;;;;;1.97;0.40;;;16.90;97.60;;;;;;5126398;27;20215;-64
2022/04/06 13:23:55;;;;;;;0.50;0.50;;;17.80;97.80;;;;;;5156650;27;20191;-57
2022/04/06 13:26:39;;;;;;;0.68;0.40;;;19.30;95.30;;;;;;5155670;27;20202;-60
2022/04/06 13:29:24;;;;;;;0.40;0.40;;;19.90;95.00;;;;;;5124324;27;20196;-55
2022/04/06 13:32:09;;;;;;;0.50;0.50;;;20.20;93.60;;;;;;5122509;27;20188;-56
2022/04/06 13:34:53;;;;;;;0.53;0.53;;;18.80;94.50;;;;;;5124037;27;20182;-61
2022/04/06 13:37:39;;;;;;;1.60;0.50;;;17.60;96.40;;;;;;5123029;27;20192;-46
2022/04/06 13:40:25;;;;;;;0.20;0.20;;;18.40;95.80;;;;;;5124800;27;20299;-54
2022/04/06 13:43:10;;;;;;;0.40;0.40;;;18.60;95.10;;;;;;5117559;27;20209;-59
2022/04/06 13:45:54;;;;;;;0.73;0.63;;;18.00;96.00;;;;;;5122355;27;20269;-51
2022/04/06 13:48:38;;;;;;;0.50;0.50;;;18.80;94.70;;;;;;5123983;27;20188;-48
2022/04/06 13:51:23;;;;;;;0.53;0.50;;;18.50;95.40;;;;;;5120542;27;20194;-51
2022/04/06 13:54:07;;;;;;;0.60;0.60;;;18.00;95.50;;;;;;5122066;27;20191;-49
2022/04/06 13:56:52;;;;;;;0.27;0.27;;;17.70;95.80;;;;;;5124943;27;20273;-58
2022/04/06 13:59:37;;;;;;;0.60;0.60;;;17.60;96.50;;;;;;5119296;27;20296;-51
2022/04/06 14:02:21;;;;;;;1.07;0.47;;;17.90;96.10;;;;;;5121718;27;20325;-47
2022/04/06 14:05:06;;;;;;;0.33;0.33;;;17.20;97.10;;;;;;5121796;27;20252;-61
2022/04/06 14:07:51;;;;;;;0.77;0.50;;;17.60;96.20;;;;;;5121280;27;20199;-44
2022/04/06 14:10:35;;;;;;;0.80;0.60;;;18.30;96.50;;;;;;5124264;27;20207;-54
2022/04/06 14:13:21;;;;;;;0.67;0.67;;;20.20;93.90;;;;;;5120472;27;20258;-49
2022/04/06 14:16:06;;;;;;;0.70;0.70;;;18.10;95.00;;;;;;5123571;27;20215;-48
2022/04/06 14:18:55;;;;;;;0.97;0.67;;;17.20;96.10;;;;;;5120669;27;20258;-55
2022/04/06 14:21:40;;;;;;;0.63;0.63;;;17.20;96.30;;;;;;5119572;27;20207;-42
2022/04/06 14:24:24;;;;;;;0.57;0.57;;;17.20;96.30;;;;;;5152635;27;20201;-57
2022/04/06 14:27:09;;;;;;;0.50;0.50;;;19.60;95.20;;;;;;5153639;27;20198;-46
2022/04/06 14:29:54;;;;;;;0.50;0.50;;;20.60;93.20;;;;;;5152625;27;20638;-58
2022/04/06 14:32:39;;;;;;;0.60;0.60;;;19.70;93.60;;;;;;5155008;27;20319;-53
2022/04/06 14:35:23;;;;;;;0.50;0.50;;;19.80;92.80;;;;;;5154768;27;20192;-62
2022/04/06 14:38:08;;;;;;;0.38;0.38;;;20.90;91.40;;;;;;5153566;27;20199;-51
2022/04/06 14:40:52;;;;;;;0.73;0.73;;;20.60;92.00;;;;;;5154878;27;20268;-42